sensor_id;sensor_type;location;lat;lon;timestamp;P1;durP1;ratioP1;P2;durP2;ratioP2
49396;SDS011;35615;41.410;2.194;2023-08-31T00:01:42;11.35;;;4.10;;
49396;SDS011;35615;41.410;2.194;2023-08-31T00:04:15;10.18;;;4.70;;
49396;SDS011;35615;41.410;2.194;2023-08-31T00:06:52;9.48;;;4.40;;
49396;SDS011;35615;41.410;2.194;2023-08-31T00:09:28;12.35;;;4.55;;
49396;SDS011;35615;41.410;2.194;2023-08-31T00:12:00;14.90;;;4.32;;
49396;SDS011;35615;41.410;2.194;2023-08-31T00:14:38;14.85;;;4.70;;
49396;SDS011;35615;41.410;2.194;2023-08-31T00:17:08;9.65;;;4.05;;
49396;SDS011;35615;41.410;2.194;2023-08-31T00:19:41;8.52;;;4.70;;
49396;SDS011;35615;41.410;2.194;2023-08-31T00:22:14;17.40;;;4.43;;
49396;SDS011;35615;41.410;2.194;2023-08-31T00:24:43;16.15;;;4.88;;
49396;SDS011;35615;41.410;2.194;2023-08-31T00:27:16;16.20;;;4.80;;
49396;SDS011;35615;41.410;2.194;2023-08-31T00:29:53;12.32;;;4.30;;
49396;SDS011;35615;41.410;2.194;2023-08-31T00:32:27;17.30;;;4.55;;
49396;SDS011;35615;41.410;2.194;2023-08-31T00:35:02;16.60;;;5.15;;
49396;SDS011;35615;41.410;2.194;2023-08-31T00:37:39;16.35;;;5.35;;
49396;SDS011;35615;41.410;2.194;2023-08-31T00:40:15;17.60;;;5.55;;
49396;SDS011;35615;41.410;2.194;2023-08-31T00:42:55;15.63;;;5.07;;
49396;SDS011;35615;41.410;2.194;2023-08-31T00:45:31;9.80;;;5.18;;
49396;SDS011;35615;41.410;2.194;2023-08-31T00:48:05;14.00;;;5.25;;
49396;SDS011;35615;41.410;2.194;2023-08-31T00:50:39;28.20;;;5.65;;
49396;SDS011;35615;41.410;2.194;2023-08-31T00:53:13;18.70;;;5.05;;
49396;SDS011;35615;41.410;2.194;2023-08-31T00:55:50;28.08;;;5.50;;
49396;SDS011;35615;41.410;2.194;2023-08-31T00:58:18;13.98;;;5.10;;
49396;SDS011;35615;41.410;2.194;2023-08-31T01:01:22;13.87;;;4.73;;
49396;SDS011;35615;41.410;2.194;2023-08-31T01:06:54;17.25;;;4.93;;
49396;SDS011;35615;41.410;2.194;2023-08-31T01:12:31;16.83;;;5.00;;
49396;SDS011;35615;41.410;2.194;2023-08-31T01:15:09;20.02;;;5.43;;
49396;SDS011;35615;41.410;2.194;2023-08-31T01:17:41;11.25;;;4.55;;
49396;SDS011;35615;41.410;2.194;2023-08-31T01:20:14;20.23;;;5.97;;
49396;SDS011;35615;41.410;2.194;2023-08-31T01:22:55;17.50;;;4.60;;
49396;SDS011;35615;41.410;2.194;2023-08-31T01:25:32;14.07;;;5.65;;
49396;SDS011;35615;41.410;2.194;2023-08-31T01:28:10;15.55;;;5.90;;
49396;SDS011;35615;41.410;2.194;2023-08-31T01:30:38;11.23;;;5.20;;
49396;SDS011;35615;41.410;2.194;2023-08-31T01:33:05;10.40;;;4.85;;
49396;SDS011;35615;41.410;2.194;2023-08-31T01:35:35;11.98;;;5.15;;
49396;SDS011;35615;41.410;2.194;2023-08-31T01:38:09;18.77;;;4.88;;
49396;SDS011;35615;41.410;2.194;2023-08-31T01:40:44;15.90;;;4.50;;
49396;SDS011;35615;41.410;2.194;2023-08-31T01:43:22;22.92;;;5.25;;
49396;SDS011;35615;41.410;2.194;2023-08-31T01:45:50;17.30;;;4.72;;
49396;SDS011;35615;41.410;2.194;2023-08-31T01:48:17;15.68;;;4.65;;
49396;SDS011;35615;41.410;2.194;2023-08-31T01:50:47;15.15;;;5.18;;
49396;SDS011;35615;41.410;2.194;2023-08-31T01:53:14;15.90;;;4.88;;
49396;SDS011;35615;41.410;2.194;2023-08-31T01:55:41;10.85;;;4.13;;
49396;SDS011;35615;41.410;2.194;2023-08-31T01:58:09;20.58;;;5.18;;
49396;SDS011;35615;41.410;2.194;2023-08-31T02:03:12;15.98;;;4.70;;
49396;SDS011;35615;41.410;2.194;2023-08-31T02:05:40;17.80;;;4.55;;
49396;SDS011;35615;41.410;2.194;2023-08-31T02:08:08;13.05;;;4.50;;
49396;SDS011;35615;41.410;2.194;2023-08-31T02:10:35;14.05;;;4.88;;
49396;SDS011;35615;41.410;2.194;2023-08-31T02:13:02;13.00;;;4.40;;
49396;SDS011;35615;41.410;2.194;2023-08-31T02:15:29;16.60;;;4.82;;
49396;SDS011;35615;41.410;2.194;2023-08-31T02:17:58;14.82;;;4.85;;
49396;SDS011;35615;41.410;2.194;2023-08-31T02:20:27;13.95;;;4.97;;
49396;SDS011;35615;41.410;2.194;2023-08-31T02:22:54;13.57;;;5.15;;
49396;SDS011;35615;41.410;2.194;2023-08-31T02:25:22;14.55;;;4.90;;
49396;SDS011;35615;41.410;2.194;2023-08-31T02:27:49;14.43;;;5.18;;
49396;SDS011;35615;41.410;2.194;2023-08-31T02:30:17;12.23;;;5.07;;
49396;SDS011;35615;41.410;2.194;2023-08-31T02:32:44;18.02;;;5.18;;
49396;SDS011;35615;41.410;2.194;2023-08-31T02:35:13;23.45;;;5.32;;
49396;SDS011;35615;41.410;2.194;2023-08-31T02:37:40;15.23;;;4.50;;
49396;SDS011;35615;41.410;2.194;2023-08-31T02:40:07;13.60;;;5.75;;
49396;SDS011;35615;41.410;2.194;2023-08-31T02:42:35;11.20;;;4.78;;
49396;SDS011;35615;41.410;2.194;2023-08-31T02:45:02;11.57;;;4.43;;
49396;SDS011;35615;41.410;2.194;2023-08-31T02:47:30;16.08;;;6.18;;
49396;SDS011;35615;41.410;2.194;2023-08-31T02:49:58;12.82;;;5.13;;
49396;SDS011;35615;41.410;2.194;2023-08-31T02:52:26;14.65;;;5.63;;
49396;SDS011;35615;41.410;2.194;2023-08-31T02:54:53;12.93;;;5.93;;
49396;SDS011;35615;41.410;2.194;2023-08-31T02:57:21;15.45;;;5.25;;
49396;SDS011;35615;41.410;2.194;2023-08-31T02:59:49;13.70;;;5.25;;
49396;SDS011;35615;41.410;2.194;2023-08-31T03:02:17;13.40;;;4.65;;
49396;SDS011;35615;41.410;2.194;2023-08-31T03:04:44;15.07;;;4.88;;
49396;SDS011;35615;41.410;2.194;2023-08-31T03:07:12;14.25;;;5.03;;
49396;SDS011;35615;41.410;2.194;2023-08-31T03:09:42;13.57;;;5.35;;
49396;SDS011;35615;41.410;2.194;2023-08-31T03:12:09;11.88;;;4.60;;
49396;SDS011;35615;41.410;2.194;2023-08-31T03:14:36;11.65;;;4.97;;
49396;SDS011;35615;41.410;2.194;2023-08-31T03:17:03;23.23;;;5.18;;
49396;SDS011;35615;41.410;2.194;2023-08-31T03:19:30;14.90;;;5.88;;
49396;SDS011;35615;41.410;2.194;2023-08-31T03:21:58;16.63;;;5.68;;
49396;SDS011;35615;41.410;2.194;2023-08-31T03:24:25;14.85;;;5.43;;
49396;SDS011;35615;41.410;2.194;2023-08-31T03:26:55;18.67;;;5.65;;
49396;SDS011;35615;41.410;2.194;2023-08-31T03:29:22;13.75;;;5.05;;
49396;SDS011;35615;41.410;2.194;2023-08-31T03:31:50;16.95;;;5.47;;
49396;SDS011;35615;41.410;2.194;2023-08-31T03:34:17;12.57;;;5.07;;
49396;SDS011;35615;41.410;2.194;2023-08-31T03:36:44;18.30;;;5.38;;
49396;SDS011;35615;41.410;2.194;2023-08-31T03:39:11;15.75;;;5.38;;
49396;SDS011;35615;41.410;2.194;2023-08-31T03:41:38;17.20;;;6.13;;
49396;SDS011;35615;41.410;2.194;2023-08-31T03:44:07;16.92;;;5.78;;
49396;SDS011;35615;41.410;2.194;2023-08-31T03:46:37;19.35;;;6.28;;
49396;SDS011;35615;41.410;2.194;2023-08-31T03:49:04;12.88;;;5.70;;
49396;SDS011;35615;41.410;2.194;2023-08-31T03:51:31;14.50;;;5.35;;
49396;SDS011;35615;41.410;2.194;2023-08-31T03:54:00;16.67;;;6.40;;
49396;SDS011;35615;41.410;2.194;2023-08-31T03:56:27;16.33;;;6.45;;
49396;SDS011;35615;41.410;2.194;2023-08-31T03:58:55;19.48;;;6.03;;
49396;SDS011;35615;41.410;2.194;2023-08-31T04:01:22;15.80;;;6.32;;
49396;SDS011;35615;41.410;2.194;2023-08-31T04:03:50;19.40;;;6.18;;
49396;SDS011;35615;41.410;2.194;2023-08-31T04:06:17;15.60;;;5.57;;
49396;SDS011;35615;41.410;2.194;2023-08-31T04:08:44;15.65;;;6.10;;
49396;SDS011;35615;41.410;2.194;2023-08-31T04:11:11;18.50;;;6.30;;
49396;SDS011;35615;41.410;2.194;2023-08-31T04:13:46;21.23;;;5.93;;
49396;SDS011;35615;41.410;2.194;2023-08-31T04:16:14;14.18;;;5.68;;
49396;SDS011;35615;41.410;2.194;2023-08-31T04:18:41;14.38;;;6.22;;
49396;SDS011;35615;41.410;2.194;2023-08-31T04:21:08;18.67;;;6.38;;
49396;SDS011;35615;41.410;2.194;2023-08-31T04:23:35;14.70;;;6.40;;
49396;SDS011;35615;41.410;2.194;2023-08-31T04:26:09;16.02;;;5.82;;
49396;SDS011;35615;41.410;2.194;2023-08-31T04:28:37;20.25;;;5.35;;
49396;SDS011;35615;41.410;2.194;2023-08-31T04:31:05;13.50;;;5.82;;
49396;SDS011;35615;41.410;2.194;2023-08-31T04:33:37;16.05;;;6.47;;
49396;SDS011;35615;41.410;2.194;2023-08-31T04:36:07;16.38;;;6.20;;
49396;SDS011;35615;41.410;2.194;2023-08-31T04:38:34;14.25;;;6.38;;
49396;SDS011;35615;41.410;2.194;2023-08-31T04:41:01;14.60;;;6.40;;
49396;SDS011;35615;41.410;2.194;2023-08-31T04:43:29;9.88;;;6.18;;
49396;SDS011;35615;41.410;2.194;2023-08-31T04:45:56;18.25;;;6.45;;
49396;SDS011;35615;41.410;2.194;2023-08-31T04:48:23;19.40;;;6.20;;
49396;SDS011;35615;41.410;2.194;2023-08-31T04:50:55;13.40;;;6.20;;
49396;SDS011;35615;41.410;2.194;2023-08-31T04:53:23;14.02;;;6.05;;
49396;SDS011;35615;41.410;2.194;2023-08-31T04:55:50;17.98;;;6.20;;
49396;SDS011;35615;41.410;2.194;2023-08-31T04:58:17;22.65;;;6.38;;
49396;SDS011;35615;41.410;2.194;2023-08-31T05:00:44;20.98;;;6.55;;
49396;SDS011;35615;41.410;2.194;2023-08-31T05:03:12;16.67;;;6.68;;
49396;SDS011;35615;41.410;2.194;2023-08-31T05:05:39;22.02;;;6.80;;
49396;SDS011;35615;41.410;2.194;2023-08-31T05:08:08;19.88;;;7.03;;
49396;SDS011;35615;41.410;2.194;2023-08-31T05:10:35;13.85;;;6.43;;
49396;SDS011;35615;41.410;2.194;2023-08-31T05:13:02;18.20;;;6.88;;
49396;SDS011;35615;41.410;2.194;2023-08-31T05:15:30;19.33;;;6.30;;
49396;SDS011;35615;41.410;2.194;2023-08-31T05:18:00;25.40;;;7.40;;
49396;SDS011;35615;41.410;2.194;2023-08-31T05:20:27;14.80;;;6.35;;
49396;SDS011;35615;41.410;2.194;2023-08-31T05:22:55;16.48;;;6.00;;
49396;SDS011;35615;41.410;2.194;2023-08-31T05:25:22;11.70;;;5.38;;
49396;SDS011;35615;41.410;2.194;2023-08-31T05:27:54;19.90;;;7.30;;
49396;SDS011;35615;41.410;2.194;2023-08-31T05:30:21;17.80;;;6.78;;
49396;SDS011;35615;41.410;2.194;2023-08-31T05:32:51;18.10;;;7.53;;
49396;SDS011;35615;41.410;2.194;2023-08-31T05:35:19;16.90;;;7.82;;
49396;SDS011;35615;41.410;2.194;2023-08-31T05:37:46;15.55;;;6.75;;
49396;SDS011;35615;41.410;2.194;2023-08-31T05:40:13;17.25;;;7.13;;
49396;SDS011;35615;41.410;2.194;2023-08-31T05:42:40;15.38;;;6.93;;
49396;SDS011;35615;41.410;2.194;2023-08-31T05:45:08;13.82;;;6.90;;
49396;SDS011;35615;41.410;2.194;2023-08-31T05:47:35;12.63;;;5.85;;
49396;SDS011;35615;41.410;2.194;2023-08-31T05:50:03;19.45;;;5.75;;
49396;SDS011;35615;41.410;2.194;2023-08-31T05:52:30;10.35;;;5.35;;
49396;SDS011;35615;41.410;2.194;2023-08-31T05:54:57;17.52;;;5.32;;
49396;SDS011;35615;41.410;2.194;2023-08-31T05:57:25;16.02;;;4.68;;
49396;SDS011;35615;41.410;2.194;2023-08-31T05:59:54;11.60;;;4.20;;
49396;SDS011;35615;41.410;2.194;2023-08-31T06:02:22;9.95;;;4.72;;
49396;SDS011;35615;41.410;2.194;2023-08-31T06:04:49;7.60;;;4.40;;
49396;SDS011;35615;41.410;2.194;2023-08-31T06:07:19;5.47;;;3.80;;
49396;SDS011;35615;41.410;2.194;2023-08-31T06:09:46;9.23;;;4.00;;
49396;SDS011;35615;41.410;2.194;2023-08-31T06:12:15;7.60;;;4.22;;
49396;SDS011;35615;41.410;2.194;2023-08-31T06:14:42;11.35;;;4.50;;
49396;SDS011;35615;41.410;2.194;2023-08-31T06:17:09;8.00;;;3.60;;
49396;SDS011;35615;41.410;2.194;2023-08-31T06:19:42;8.80;;;3.23;;
49396;SDS011;35615;41.410;2.194;2023-08-31T06:22:09;4.60;;;3.30;;
49396;SDS011;35615;41.410;2.194;2023-08-31T06:24:36;8.05;;;3.83;;
49396;SDS011;35615;41.410;2.194;2023-08-31T06:27:04;10.32;;;3.47;;
49396;SDS011;35615;41.410;2.194;2023-08-31T06:29:31;9.65;;;3.63;;
49396;SDS011;35615;41.410;2.194;2023-08-31T06:31:58;9.70;;;3.58;;
49396;SDS011;35615;41.410;2.194;2023-08-31T06:34:26;12.20;;;3.45;;
49396;SDS011;35615;41.410;2.194;2023-08-31T06:36:53;8.90;;;4.38;;
49396;SDS011;35615;41.410;2.194;2023-08-31T06:39:20;13.85;;;3.20;;
49396;SDS011;35615;41.410;2.194;2023-08-31T06:41:48;7.68;;;3.55;;
49396;SDS011;35615;41.410;2.194;2023-08-31T06:44:18;11.77;;;3.42;;
49396;SDS011;35615;41.410;2.194;2023-08-31T06:46:48;10.83;;;3.63;;
49396;SDS011;35615;41.410;2.194;2023-08-31T06:49:15;10.02;;;4.43;;
49396;SDS011;35615;41.410;2.194;2023-08-31T06:51:43;11.00;;;3.67;;
49396;SDS011;35615;41.410;2.194;2023-08-31T06:54:13;8.32;;;3.45;;
49396;SDS011;35615;41.410;2.194;2023-08-31T06:56:40;9.60;;;3.78;;
49396;SDS011;35615;41.410;2.194;2023-08-31T06:59:13;10.80;;;3.80;;
49396;SDS011;35615;41.410;2.194;2023-08-31T07:01:40;7.82;;;3.88;;
49396;SDS011;35615;41.410;2.194;2023-08-31T07:04:10;7.78;;;4.22;;
49396;SDS011;35615;41.410;2.194;2023-08-31T07:06:38;12.80;;;4.07;;
49396;SDS011;35615;41.410;2.194;2023-08-31T07:09:05;8.65;;;3.90;;
49396;SDS011;35615;41.410;2.194;2023-08-31T07:11:34;15.15;;;4.10;;
49396;SDS011;35615;41.410;2.194;2023-08-31T07:14:04;14.25;;;4.32;;
49396;SDS011;35615;41.410;2.194;2023-08-31T07:16:33;13.23;;;3.75;;
49396;SDS011;35615;41.410;2.194;2023-08-31T07:19:00;8.65;;;4.85;;
49396;SDS011;35615;41.410;2.194;2023-08-31T07:21:32;13.25;;;3.78;;
49396;SDS011;35615;41.410;2.194;2023-08-31T07:24:02;9.20;;;3.80;;
49396;SDS011;35615;41.410;2.194;2023-08-31T07:26:34;8.75;;;4.20;;
49396;SDS011;35615;41.410;2.194;2023-08-31T07:29:01;13.88;;;3.92;;
49396;SDS011;35615;41.410;2.194;2023-08-31T07:31:32;13.02;;;4.15;;
49396;SDS011;35615;41.410;2.194;2023-08-31T07:33:59;9.98;;;3.85;;
49396;SDS011;35615;41.410;2.194;2023-08-31T07:36:27;11.07;;;4.00;;
49396;SDS011;35615;41.410;2.194;2023-08-31T07:38:54;16.88;;;6.00;;
49396;SDS011;35615;41.410;2.194;2023-08-31T07:41:21;10.68;;;4.63;;
49396;SDS011;35615;41.410;2.194;2023-08-31T07:43:49;13.13;;;4.15;;
49396;SDS011;35615;41.410;2.194;2023-08-31T07:46:30;14.18;;;5.15;;
49396;SDS011;35615;41.410;2.194;2023-08-31T07:48:58;12.77;;;4.78;;
49396;SDS011;35615;41.410;2.194;2023-08-31T07:51:26;12.95;;;4.50;;
49396;SDS011;35615;41.410;2.194;2023-08-31T07:53:53;7.90;;;4.20;;
49396;SDS011;35615;41.410;2.194;2023-08-31T07:56:22;16.10;;;7.38;;
49396;SDS011;35615;41.410;2.194;2023-08-31T07:58:51;14.90;;;4.60;;
49396;SDS011;35615;41.410;2.194;2023-08-31T08:01:25;13.05;;;4.20;;
49396;SDS011;35615;41.410;2.194;2023-08-31T08:03:52;7.80;;;3.90;;
49396;SDS011;35615;41.410;2.194;2023-08-31T08:06:21;12.63;;;4.18;;
49396;SDS011;35615;41.410;2.194;2023-08-31T08:08:48;7.85;;;3.92;;
49396;SDS011;35615;41.410;2.194;2023-08-31T08:11:17;7.45;;;3.83;;
49396;SDS011;35615;41.410;2.194;2023-08-31T08:13:44;9.55;;;4.07;;
49396;SDS011;35615;41.410;2.194;2023-08-31T08:16:11;8.27;;;3.70;;
49396;SDS011;35615;41.410;2.194;2023-08-31T08:18:40;9.25;;;3.63;;
49396;SDS011;35615;41.410;2.194;2023-08-31T08:21:07;12.07;;;3.80;;
49396;SDS011;35615;41.410;2.194;2023-08-31T08:23:34;7.35;;;4.20;;
49396;SDS011;35615;41.410;2.194;2023-08-31T08:26:02;8.80;;;3.88;;
49396;SDS011;35615;41.410;2.194;2023-08-31T08:28:29;11.63;;;4.25;;
49396;SDS011;35615;41.410;2.194;2023-08-31T08:30:56;9.55;;;3.95;;
49396;SDS011;35615;41.410;2.194;2023-08-31T08:33:24;9.35;;;4.32;;
49396;SDS011;35615;41.410;2.194;2023-08-31T08:35:51;8.98;;;4.22;;
49396;SDS011;35615;41.410;2.194;2023-08-31T08:38:22;17.95;;;5.22;;
49396;SDS011;35615;41.410;2.194;2023-08-31T08:40:49;10.43;;;4.45;;
49396;SDS011;35615;41.410;2.194;2023-08-31T08:43:21;12.25;;;3.67;;
49396;SDS011;35615;41.410;2.194;2023-08-31T08:45:53;10.77;;;4.30;;
49396;SDS011;35615;41.410;2.194;2023-08-31T08:48:23;9.88;;;4.60;;
49396;SDS011;35615;41.410;2.194;2023-08-31T08:50:51;9.57;;;4.57;;
49396;SDS011;35615;41.410;2.194;2023-08-31T08:53:21;12.35;;;4.40;;
49396;SDS011;35615;41.410;2.194;2023-08-31T08:55:51;17.83;;;4.13;;
49396;SDS011;35615;41.410;2.194;2023-08-31T08:58:18;9.73;;;4.05;;
49396;SDS011;35615;41.410;2.194;2023-08-31T09:00:47;11.57;;;4.07;;
49396;SDS011;35615;41.410;2.194;2023-08-31T09:03:15;6.97;;;2.78;;
49396;SDS011;35615;41.410;2.194;2023-08-31T09:05:44;9.75;;;2.63;;
49396;SDS011;35615;41.410;2.194;2023-08-31T09:08:11;9.05;;;2.25;;
49396;SDS011;35615;41.410;2.194;2023-08-31T09:10:40;5.63;;;2.28;;
49396;SDS011;35615;41.410;2.194;2023-08-31T09:13:12;5.18;;;2.20;;
49396;SDS011;35615;41.410;2.194;2023-08-31T09:15:47;5.10;;;2.40;;
49396;SDS011;35615;41.410;2.194;2023-08-31T09:18:22;8.73;;;2.72;;
49396;SDS011;35615;41.410;2.194;2023-08-31T09:20:59;8.10;;;2.63;;
49396;SDS011;35615;41.410;2.194;2023-08-31T09:23:27;7.18;;;2.85;;
49396;SDS011;35615;41.410;2.194;2023-08-31T09:25:55;9.02;;;3.17;;
49396;SDS011;35615;41.410;2.194;2023-08-31T09:28:24;8.55;;;3.13;;
49396;SDS011;35615;41.410;2.194;2023-08-31T09:31:04;4.07;;;2.08;;
49396;SDS011;35615;41.410;2.194;2023-08-31T09:33:48;3.65;;;2.17;;
49396;SDS011;35615;41.410;2.194;2023-08-31T09:36:18;3.90;;;2.28;;
49396;SDS011;35615;41.410;2.194;2023-08-31T09:38:56;7.72;;;2.53;;
49396;SDS011;35615;41.410;2.194;2023-08-31T09:41:30;3.60;;;2.35;;
49396;SDS011;35615;41.410;2.194;2023-08-31T09:44:14;5.53;;;2.58;;
49396;SDS011;35615;41.410;2.194;2023-08-31T09:46:48;8.27;;;2.67;;
49396;SDS011;35615;41.410;2.194;2023-08-31T09:49:18;11.82;;;2.97;;
49396;SDS011;35615;41.410;2.194;2023-08-31T09:51:51;8.68;;;3.30;;
49396;SDS011;35615;41.410;2.194;2023-08-31T09:54:20;5.25;;;2.80;;
49396;SDS011;35615;41.410;2.194;2023-08-31T09:56:50;4.22;;;3.00;;
49396;SDS011;35615;41.410;2.194;2023-08-31T09:59:26;6.07;;;2.45;;
49396;SDS011;35615;41.410;2.194;2023-08-31T10:01:55;5.90;;;3.08;;
49396;SDS011;35615;41.410;2.194;2023-08-31T10:04:24;14.13;;;3.85;;
49396;SDS011;35615;41.410;2.194;2023-08-31T10:06:51;10.82;;;3.13;;
49396;SDS011;35615;41.410;2.194;2023-08-31T10:09:24;6.15;;;2.80;;
49396;SDS011;35615;41.410;2.194;2023-08-31T10:11:52;12.18;;;3.28;;
49396;SDS011;35615;41.410;2.194;2023-08-31T10:14:24;5.80;;;3.00;;
49396;SDS011;35615;41.410;2.194;2023-08-31T10:16:55;6.15;;;2.70;;
49396;SDS011;35615;41.410;2.194;2023-08-31T10:19:33;5.72;;;2.97;;
49396;SDS011;35615;41.410;2.194;2023-08-31T10:22:05;7.80;;;3.28;;
49396;SDS011;35615;41.410;2.194;2023-08-31T10:25:16;7.85;;;2.65;;
49396;SDS011;35615;41.410;2.194;2023-08-31T10:27:27;3.95;;;2.60;;
49396;SDS011;35615;41.410;2.194;2023-08-31T10:41:35;6.38;;;2.85;;
49396;SDS011;35615;41.410;2.194;2023-08-31T10:44:18;3.25;;;2.10;;
49396;SDS011;35615;41.410;2.194;2023-08-31T10:46:49;4.45;;;2.30;;
49396;SDS011;35615;41.410;2.194;2023-08-31T10:49:26;4.95;;;2.35;;
49396;SDS011;35615;41.410;2.194;2023-08-31T10:51:56;6.22;;;2.42;;
49396;SDS011;35615;41.410;2.194;2023-08-31T10:55:08;3.78;;;2.03;;
49396;SDS011;35615;41.410;2.194;2023-08-31T10:57:38;2.95;;;2.10;;
49396;SDS011;35615;41.410;2.194;2023-08-31T11:00:10;6.07;;;2.53;;
49396;SDS011;35615;41.410;2.194;2023-08-31T11:05:26;8.60;;;3.58;;
49396;SDS011;35615;41.410;2.194;2023-08-31T11:07:57;5.57;;;2.17;;
49396;SDS011;35615;41.410;2.194;2023-08-31T11:10:29;4.00;;;2.03;;
49396;SDS011;35615;41.410;2.194;2023-08-31T11:12:59;2.47;;;1.80;;
49396;SDS011;35615;41.410;2.194;2023-08-31T11:15:27;2.60;;;1.65;;
49396;SDS011;35615;41.410;2.194;2023-08-31T11:17:56;4.90;;;2.38;;
49396;SDS011;35615;41.410;2.194;2023-08-31T11:20:24;6.70;;;2.47;;
49396;SDS011;35615;41.410;2.194;2023-08-31T11:22:55;3.95;;;1.80;;
49396;SDS011;35615;41.410;2.194;2023-08-31T11:25:25;4.55;;;1.85;;
49396;SDS011;35615;41.410;2.194;2023-08-31T11:27:53;4.35;;;2.17;;
49396;SDS011;35615;41.410;2.194;2023-08-31T11:30:27;3.42;;;1.52;;
49396;SDS011;35615;41.410;2.194;2023-08-31T11:33:03;7.18;;;2.28;;
49396;SDS011;35615;41.410;2.194;2023-08-31T11:35:35;11.55;;;3.40;;
49396;SDS011;35615;41.410;2.194;2023-08-31T11:40:32;3.88;;;2.65;;
49396;SDS011;35615;41.410;2.194;2023-08-31T11:42:59;7.78;;;2.72;;
49396;SDS011;35615;41.410;2.194;2023-08-31T11:45:27;10.05;;;3.08;;
49396;SDS011;35615;41.410;2.194;2023-08-31T11:47:55;4.72;;;2.65;;
49396;SDS011;35615;41.410;2.194;2023-08-31T11:50:25;4.07;;;2.45;;
49396;SDS011;35615;41.410;2.194;2023-08-31T11:53:00;10.25;;;2.70;;
49396;SDS011;35615;41.410;2.194;2023-08-31T11:55:30;8.93;;;2.95;;
49396;SDS011;35615;41.410;2.194;2023-08-31T11:58:07;6.43;;;3.55;;
49396;SDS011;35615;41.410;2.194;2023-08-31T12:00:38;8.05;;;2.90;;
49396;SDS011;35615;41.410;2.194;2023-08-31T12:03:07;4.28;;;2.65;;
49396;SDS011;35615;41.410;2.194;2023-08-31T12:05:50;10.90;;;3.70;;
49396;SDS011;35615;41.410;2.194;2023-08-31T12:08:26;9.63;;;3.00;;
49396;SDS011;35615;41.410;2.194;2023-08-31T12:10:55;9.13;;;2.85;;
49396;SDS011;35615;41.410;2.194;2023-08-31T12:13:26;7.43;;;3.47;;
49396;SDS011;35615;41.410;2.194;2023-08-31T12:15:57;4.93;;;3.20;;
49396;SDS011;35615;41.410;2.194;2023-08-31T12:18:25;4.05;;;2.72;;
49396;SDS011;35615;41.410;2.194;2023-08-31T12:23:31;9.07;;;4.32;;
49396;SDS011;35615;41.410;2.194;2023-08-31T12:26:01;7.13;;;4.40;;
49396;SDS011;35615;41.410;2.194;2023-08-31T12:28:29;9.68;;;3.92;;
49396;SDS011;35615;41.410;2.194;2023-08-31T12:30:56;10.82;;;4.32;;
49396;SDS011;35615;41.410;2.194;2023-08-31T12:33:25;13.32;;;4.57;;
49396;SDS011;35615;41.410;2.194;2023-08-31T12:35:52;9.93;;;3.28;;
49396;SDS011;35615;41.410;2.194;2023-08-31T12:38:20;3.90;;;2.22;;
49396;SDS011;35615;41.410;2.194;2023-08-31T12:40:49;5.00;;;2.55;;
49396;SDS011;35615;41.410;2.194;2023-08-31T12:43:17;8.23;;;3.10;;
49396;SDS011;35615;41.410;2.194;2023-08-31T12:45:45;8.55;;;3.47;;
49396;SDS011;35615;41.410;2.194;2023-08-31T12:48:13;7.65;;;2.63;;
49396;SDS011;35615;41.410;2.194;2023-08-31T12:50:41;5.70;;;2.40;;
49396;SDS011;35615;41.410;2.194;2023-08-31T12:53:09;8.23;;;3.15;;
49396;SDS011;35615;41.410;2.194;2023-08-31T12:55:36;4.28;;;2.72;;
49396;SDS011;35615;41.410;2.194;2023-08-31T12:58:03;4.72;;;2.72;;
49396;SDS011;35615;41.410;2.194;2023-08-31T13:00:31;5.68;;;2.63;;
49396;SDS011;35615;41.410;2.194;2023-08-31T13:02:59;6.55;;;2.40;;
49396;SDS011;35615;41.410;2.194;2023-08-31T13:05:28;4.60;;;2.40;;
49396;SDS011;35615;41.410;2.194;2023-08-31T13:07:57;5.00;;;2.17;;
49396;SDS011;35615;41.410;2.194;2023-08-31T13:10:25;6.80;;;2.38;;
49396;SDS011;35615;41.410;2.194;2023-08-31T13:12:54;6.50;;;3.00;;
49396;SDS011;35615;41.410;2.194;2023-08-31T13:15:21;11.95;;;2.08;;
49396;SDS011;35615;41.410;2.194;2023-08-31T13:17:49;7.75;;;3.33;;
49396;SDS011;35615;41.410;2.194;2023-08-31T13:20:16;13.60;;;1.90;;
49396;SDS011;35615;41.410;2.194;2023-08-31T13:22:44;3.35;;;1.98;;
49396;SDS011;35615;41.410;2.194;2023-08-31T13:25:15;6.18;;;1.98;;
49396;SDS011;35615;41.410;2.194;2023-08-31T13:27:45;4.07;;;1.80;;
49396;SDS011;35615;41.410;2.194;2023-08-31T13:30:12;4.47;;;2.35;;
49396;SDS011;35615;41.410;2.194;2023-08-31T13:32:40;5.50;;;2.25;;
49396;SDS011;35615;41.410;2.194;2023-08-31T13:35:08;4.30;;;2.00;;
49396;SDS011;35615;41.410;2.194;2023-08-31T13:37:37;5.30;;;1.80;;
49396;SDS011;35615;41.410;2.194;2023-08-31T13:40:05;3.58;;;1.90;;
49396;SDS011;35615;41.410;2.194;2023-08-31T13:42:36;4.22;;;2.10;;
49396;SDS011;35615;41.410;2.194;2023-08-31T13:45:20;5.15;;;1.92;;
49396;SDS011;35615;41.410;2.194;2023-08-31T13:47:48;2.97;;;1.88;;
49396;SDS011;35615;41.410;2.194;2023-08-31T13:50:19;8.00;;;1.98;;
49396;SDS011;35615;41.410;2.194;2023-08-31T13:52:47;4.05;;;1.77;;
49396;SDS011;35615;41.410;2.194;2023-08-31T13:55:15;5.43;;;1.92;;
49396;SDS011;35615;41.410;2.194;2023-08-31T13:57:46;7.32;;;1.85;;
49396;SDS011;35615;41.410;2.194;2023-08-31T14:00:13;2.42;;;1.70;;
49396;SDS011;35615;41.410;2.194;2023-08-31T14:02:49;4.60;;;1.50;;
49396;SDS011;35615;41.410;2.194;2023-08-31T14:05:19;5.03;;;1.80;;
49396;SDS011;35615;41.410;2.194;2023-08-31T14:07:48;7.53;;;2.08;;
49396;SDS011;35615;41.410;2.194;2023-08-31T14:10:24;7.45;;;2.45;;
49396;SDS011;35615;41.410;2.194;2023-08-31T14:12:59;9.57;;;2.10;;
49396;SDS011;35615;41.410;2.194;2023-08-31T14:15:27;2.75;;;1.95;;
49396;SDS011;35615;41.410;2.194;2023-08-31T14:17:58;2.22;;;1.63;;
49396;SDS011;35615;41.410;2.194;2023-08-31T14:20:30;7.03;;;1.63;;
49396;SDS011;35615;41.410;2.194;2023-08-31T14:23:04;4.05;;;1.50;;
49396;SDS011;35615;41.410;2.194;2023-08-31T14:25:37;6.20;;;1.85;;
49396;SDS011;35615;41.410;2.194;2023-08-31T14:28:15;8.32;;;2.03;;
49396;SDS011;35615;41.410;2.194;2023-08-31T14:30:43;4.68;;;1.98;;
49396;SDS011;35615;41.410;2.194;2023-08-31T14:33:11;5.78;;;1.50;;
49396;SDS011;35615;41.410;2.194;2023-08-31T14:35:39;6.85;;;1.90;;
49396;SDS011;35615;41.410;2.194;2023-08-31T14:38:11;4.15;;;1.40;;
49396;SDS011;35615;41.410;2.194;2023-08-31T14:40:47;5.25;;;1.77;;
49396;SDS011;35615;41.410;2.194;2023-08-31T14:43:14;11.30;;;2.53;;
49396;SDS011;35615;41.410;2.194;2023-08-31T14:45:47;5.28;;;1.92;;
49396;SDS011;35615;41.410;2.194;2023-08-31T14:48:18;6.28;;;2.70;;
49396;SDS011;35615;41.410;2.194;2023-08-31T14:50:46;6.13;;;2.05;;
49396;SDS011;35615;41.410;2.194;2023-08-31T14:53:13;5.53;;;1.90;;
49396;SDS011;35615;41.410;2.194;2023-08-31T14:55:47;2.47;;;1.67;;
49396;SDS011;35615;41.410;2.194;2023-08-31T14:58:18;4.82;;;1.60;;
49396;SDS011;35615;41.410;2.194;2023-08-31T15:00:49;3.28;;;1.75;;
49396;SDS011;35615;41.410;2.194;2023-08-31T15:03:18;2.90;;;1.75;;
49396;SDS011;35615;41.410;2.194;2023-08-31T15:05:50;5.10;;;1.65;;
49396;SDS011;35615;41.410;2.194;2023-08-31T15:08:21;3.13;;;1.80;;
49396;SDS011;35615;41.410;2.194;2023-08-31T15:11:05;5.35;;;1.75;;
49396;SDS011;35615;41.410;2.194;2023-08-31T15:13:35;6.57;;;1.80;;
49396;SDS011;35615;41.410;2.194;2023-08-31T15:16:10;7.88;;;1.75;;
49396;SDS011;35615;41.410;2.194;2023-08-31T15:18:39;3.50;;;1.70;;
49396;SDS011;35615;41.410;2.194;2023-08-31T15:21:07;4.50;;;2.35;;
49396;SDS011;35615;41.410;2.194;2023-08-31T15:23:36;11.75;;;2.00;;
49396;SDS011;35615;41.410;2.194;2023-08-31T15:26:06;5.18;;;1.83;;